Terminal Aerodrome Forecast
Issued by NWS Boston, MA

Home | Current Version | Previous Version | Text Only | Print | Product List | Glossary On
Versions: 1 2 3 4 5 6 7 8 9 10 11 12 13 14 15 16 17 18 19 20 21 22 23 24 25 26 27 28 29 30 31 32 33 34 35 36 37 38 39 40 41 42 43 44
000
FTUS41 KBOX 212320
TAFBDL
TAF
KBDL 212320Z 2200/2306 01006KT P6SM OVC050
     FM220400 01005KT 5SM BR OVC025
     FM220600 01006KT 6SM BR OVC008
     FM221700 36010G17KT P6SM -SHRA OVC008
     FM222200 36010G20KT 6SM RA OVC015
     FM230000 36011G20KT 3SM RA BR OVC025=

USA.gov is the U.S. government's official web portal to all federal, state and local government web resources and services.